CheckWX is a tool to help pilots better visualize weather data.  It is not intended as a substitute for an official pre-flight weather briefing.

07:44:40 UTC

KRDD METAR
Redding Municipal Airport
Redding, California, USA
Current

52 mins ago

KRDD 210653Z AUTO 18011KT 10SM SCT039 BKN075 14/06 A2980 RMK AO2 SLP088 T01440061
Observed
May-21 @ 06:53 UTC
Wind
  • 180° at 11 KTS
Visibility
10 SM
Flight Rules
VFR
Cloud Levels
  • Scattered at 3,900' AGL
  • Broken at 7,500' AGL
Temperature
14°C / 57°F
Dewpoint
C / 43°F
Humidity
59%
Altimeter
29.8" Hg
Pressure
1009.12 hPa
Previous

2 hours ago

KRDD 210553Z AUTO 20006KT 10SM OVC080 16/06 A2978 RMK AO2 SLP082 T01610056 10200 20161 53004
Observed
May-21 @ 05:53 UTC
Wind
  • 200° at 6 KTS
Visibility
10 SM
Flight Rules
VFR
Cloud Levels
  • Overcast at 8,000' AGL
Temperature
16°C / 61°F
Dewpoint
C / 43°F
Humidity
52%
Altimeter
29.78" Hg
Pressure
1008.42 hPa
Previous

3 hours ago

KRDD 210453Z AUTO 20011KT 10SM SCT030 SCT100 BKN120 17/09 A2977 RMK AO2 PK WND 17026/0407 LTG DSNT N AND NE SLP079 T01670089
Observed
May-21 @ 04:53 UTC
Wind
  • 200° at 11 KTS
Visibility
10 SM
Flight Rules
VFR
Cloud Levels
  • Scattered at 3,000' AGL
  • Scattered at 10,000' AGL
  • Broken at 12,000' AGL
Temperature
17°C / 63°F
Dewpoint
C / 48°F
Humidity
59%
Altimeter
29.77" Hg
Pressure
1008.12 hPa